sensor_id;sensor_type;location;lat;lon;timestamp;temperature;humidity
76759;DHT22;65701;45.588;5.186;2023-02-23T04:13:07;10.24;78.02
76759;DHT22;65701;45.588;5.186;2023-02-23T04:15:50;10.20;78.21
76759;DHT22;65701;45.588;5.186;2023-02-23T04:18:22;10.13;78.16
76759;DHT22;65701;45.588;5.186;2023-02-23T04:20:48;10.04;78.35
76759;DHT22;65701;45.588;5.186;2023-02-23T04:23:14;9.96;78.77
76759;DHT22;65701;45.588;5.186;2023-02-23T04:25:39;9.85;78.65
76759;DHT22;65701;45.588;5.186;2023-02-23T04:28:05;9.79;78.99
76759;DHT22;65701;45.588;5.186;2023-02-23T04:30:30;9.77;78.96
76759;DHT22;65701;45.588;5.186;2023-02-23T04:32:56;9.70;79.31
76759;DHT22;65701;45.588;5.186;2023-02-23T04:35:24;9.70;79.14
76759;DHT22;65701;45.588;5.186;2023-02-23T04:37:52;9.67;78.92
76759;DHT22;65701;45.588;5.186;2023-02-23T04:40:17;9.66;79.00
76759;DHT22;65701;45.588;5.186;2023-02-23T04:42:43;9.59;79.70
76759;DHT22;65701;45.588;5.186;2023-02-23T04:45:09;9.56;79.33
76759;DHT22;65701;45.588;5.186;2023-02-23T04:47:35;9.52;79.05
76759;DHT22;65701;45.588;5.186;2023-02-23T04:50:00;9.50;78.91
76759;DHT22;65701;45.588;5.186;2023-02-23T04:52:26;9.48;78.74
76759;DHT22;65701;45.588;5.186;2023-02-23T04:54:51;9.46;78.62
76759;DHT22;65701;45.588;5.186;2023-02-23T04:57:17;9.45;78.51
76759;DHT22;65701;45.588;5.186;2023-02-23T04:59:42;9.43;78.51
76759;DHT22;65701;45.588;5.186;2023-02-23T05:02:08;9.39;78.65
76759;DHT22;65701;45.588;5.186;2023-02-23T05:04:33;9.43;78.67
76759;DHT22;65701;45.588;5.186;2023-02-23T05:07:02;9.42;78.96
76759;DHT22;65701;45.588;5.186;2023-02-23T05:09:29;9.39;79.09
76759;DHT22;65701;45.588;5.186;2023-02-23T05:11:54;9.45;78.95
76759;DHT22;65701;45.588;5.186;2023-02-23T05:14:20;9.42;79.23
76759;DHT22;65701;45.588;5.186;2023-02-23T05:16:46;9.41;79.37
76759;DHT22;65701;45.588;5.186;2023-02-23T05:19:12;9.39;79.05
76759;DHT22;65701;45.588;5.186;2023-02-23T05:21:37;9.41;78.84
76759;DHT22;65701;45.588;5.186;2023-02-23T05:24:04;9.36;78.77
76759;DHT22;65701;45.588;5.186;2023-02-23T05:26:30;9.36;78.69
76759;DHT22;65701;45.588;5.186;2023-02-23T05:28:55;9.31;78.42
76759;DHT22;65701;45.588;5.186;2023-02-23T05:31:22;9.24;78.21
76759;DHT22;65701;45.588;5.186;2023-02-23T05:33:47;9.17;78.05
76759;DHT22;65701;45.588;5.186;2023-02-23T05:36:15;9.14;78.09
76759;DHT22;65701;45.588;5.186;2023-02-23T05:38:42;9.17;78.14
76759;DHT22;65701;45.588;5.186;2023-02-23T05:41:09;9.13;78.17
76759;DHT22;65701;45.588;5.186;2023-02-23T05:43:35;9.13;78.23
76759;DHT22;65701;45.588;5.186;2023-02-23T05:46:05;9.15;78.31
76759;DHT22;65701;45.588;5.186;2023-02-23T05:48:31;9.13;78.32
76759;DHT22;65701;45.588;5.186;2023-02-23T05:51:06;9.14;78.31
76759;DHT22;65701;45.588;5.186;2023-02-23T05:53:32;9.11;78.25
76759;DHT22;65701;45.588;5.186;2023-02-23T05:55:58;9.13;78.36
76759;DHT22;65701;45.588;5.186;2023-02-23T05:58:23;9.11;78.32
76759;DHT22;65701;45.588;5.186;2023-02-23T06:00:49;9.07;78.27
76759;DHT22;65701;45.588;5.186;2023-02-23T06:03:14;9.07;78.20
76759;DHT22;65701;45.588;5.186;2023-02-23T06:05:40;9.01;78.08
76759;DHT22;65701;45.588;5.186;2023-02-23T06:08:07;8.97;77.98
76759;DHT22;65701;45.588;5.186;2023-02-23T06:10:33;8.94;77.91
76759;DHT22;65701;45.588;5.186;2023-02-23T06:12:58;8.91;77.87
76759;DHT22;65701;45.588;5.186;2023-02-23T06:15:24;8.87;77.83
76759;DHT22;65701;45.588;5.186;2023-02-23T06:17:49;8.84;77.87
76759;DHT22;65701;45.588;5.186;2023-02-23T06:20:15;8.83;77.89
76759;DHT22;65701;45.588;5.186;2023-02-23T06:22:40;8.77;77.87
76759;DHT22;65701;45.588;5.186;2023-02-23T06:25:07;8.72;77.62
76759;DHT22;65701;45.588;5.186;2023-02-23T06:27:39;8.65;77.57
76759;DHT22;65701;45.588;5.186;2023-02-23T06:30:07;8.58;77.48
76759;DHT22;65701;45.588;5.186;2023-02-23T06:32:33;8.49;77.41
76759;DHT22;65701;45.588;5.186;2023-02-23T06:34:58;8.45;77.40
76759;DHT22;65701;45.588;5.186;2023-02-23T06:37:24;8.38;77.44
76759;DHT22;65701;45.588;5.186;2023-02-23T06:39:49;8.38;77.50
76759;DHT22;65701;45.588;5.186;2023-02-23T06:42:15;8.35;77.61
76759;DHT22;65701;45.588;5.186;2023-02-23T06:44:41;8.35;77.65
76759;DHT22;65701;45.588;5.186;2023-02-23T06:47:06;8.32;77.77
76759;DHT22;65701;45.588;5.186;2023-02-23T06:49:32;8.34;77.80
76759;DHT22;65701;45.588;5.186;2023-02-23T06:51:58;8.32;77.81
76759;DHT22;65701;45.588;5.186;2023-02-23T06:54:24;8.32;77.88
76759;DHT22;65701;45.588;5.186;2023-02-23T06:56:50;8.38;77.97
76759;DHT22;65701;45.588;5.186;2023-02-23T06:59:17;8.41;78.03
76759;DHT22;65701;45.588;5.186;2023-02-23T07:01:43;8.38;78.13
76759;DHT22;65701;45.588;5.186;2023-02-23T07:04:09;8.44;78.14
76759;DHT22;65701;45.588;5.186;2023-02-23T07:06:35;8.44;78.34
76759;DHT22;65701;45.588;5.186;2023-02-23T07:09:01;8.44;78.41
76759;DHT22;65701;45.588;5.186;2023-02-23T07:11:26;8.45;78.36
76759;DHT22;65701;45.588;5.186;2023-02-23T07:13:52;8.48;78.29
76759;DHT22;65701;45.588;5.186;2023-02-23T07:16:17;8.45;78.15
76759;DHT22;65701;45.588;5.186;2023-02-23T07:18:43;8.45;78.15
76759;DHT22;65701;45.588;5.186;2023-02-23T07:21:08;8.48;78.22
76759;DHT22;65701;45.588;5.186;2023-02-23T07:23:34;8.48;78.67
76759;DHT22;65701;45.588;5.186;2023-02-23T07:25:59;8.48;79.33
76759;DHT22;65701;45.588;5.186;2023-02-23T07:28:25;8.49;79.49
76759;DHT22;65701;45.588;5.186;2023-02-23T07:30:56;8.56;79.68
76759;DHT22;65701;45.588;5.186;2023-02-23T07:33:23;8.60;79.79
76759;DHT22;65701;45.588;5.186;2023-02-23T07:35:50;8.67;79.67
76759;DHT22;65701;45.588;5.186;2023-02-23T07:38:15;8.75;79.52
76759;DHT22;65701;45.588;5.186;2023-02-23T07:40:41;8.83;79.61
76759;DHT22;65701;45.588;5.186;2023-02-23T07:43:06;8.93;79.59
76759;DHT22;65701;45.588;5.186;2023-02-23T07:45:32;9.05;79.80
76759;DHT22;65701;45.588;5.186;2023-02-23T07:47:58;9.17;79.76
76759;DHT22;65701;45.588;5.186;2023-02-23T07:50:24;9.34;79.91
76759;DHT22;65701;45.588;5.186;2023-02-23T07:52:51;9.45;80.02
76759;DHT22;65701;45.588;5.186;2023-02-23T07:55:17;9.66;80.02
76759;DHT22;65701;45.588;5.186;2023-02-23T07:57:42;9.82;79.88
76759;DHT22;65701;45.588;5.186;2023-02-23T08:00:10;10.01;80.15
76759;DHT22;65701;45.588;5.186;2023-02-23T08:02:35;10.24;80.45
76759;DHT22;65701;45.588;5.186;2023-02-23T08:05:01;10.45;80.71
76759;DHT22;65701;45.588;5.186;2023-02-23T08:07:27;10.65;80.57
76759;DHT22;65701;45.588;5.186;2023-02-23T08:09:52;10.83;80.53
76759;DHT22;65701;45.588;5.186;2023-02-23T08:12:18;11.00;80.08
76759;DHT22;65701;45.588;5.186;2023-02-23T08:14:44;11.18;79.67
76759;DHT22;65701;45.588;5.186;2023-02-23T08:17:10;11.35;79.38
76759;DHT22;65701;45.588;5.186;2023-02-23T08:19:35;11.48;79.14
76759;DHT22;65701;45.588;5.186;2023-02-23T08:22:02;11.63;79.06
76759;DHT22;65701;45.588;5.186;2023-02-23T08:24:28;11.77;78.90
76759;DHT22;65701;45.588;5.186;2023-02-23T08:26:55;11.87;78.73
76759;DHT22;65701;45.588;5.186;2023-02-23T08:29:21;11.96;78.56
76759;DHT22;65701;45.588;5.186;2023-02-23T08:31:47;12.00;78.42
76759;DHT22;65701;45.588;5.186;2023-02-23T08:34:13;12.12;78.29
76759;DHT22;65701;45.588;5.186;2023-02-23T08:36:38;12.18;78.22
76759;DHT22;65701;45.588;5.186;2023-02-23T08:39:05;12.31;78.09
76759;DHT22;65701;45.588;5.186;2023-02-23T08:41:32;12.35;78.05
76759;DHT22;65701;45.588;5.186;2023-02-23T08:43:58;12.42;77.97
76759;DHT22;65701;45.588;5.186;2023-02-23T08:46:24;12.42;77.90
76759;DHT22;65701;45.588;5.186;2023-02-23T08:48:49;12.45;77.79
76759;DHT22;65701;45.588;5.186;2023-02-23T08:51:15;12.53;77.74
76759;DHT22;65701;45.588;5.186;2023-02-23T08:53:41;12.59;77.67
76759;DHT22;65701;45.588;5.186;2023-02-23T08:56:07;12.60;77.28
76759;DHT22;65701;45.588;5.186;2023-02-23T08:58:34;12.63;77.24
76759;DHT22;65701;45.588;5.186;2023-02-23T09:00:59;12.69;77.27
76759;DHT22;65701;45.588;5.186;2023-02-23T09:03:27;12.72;77.02
76759;DHT22;65701;45.588;5.186;2023-02-23T09:06:03;12.79;77.06
76759;DHT22;65701;45.588;5.186;2023-02-23T09:08:29;12.82;76.95
76759;DHT22;65701;45.588;5.186;2023-02-23T09:10:54;12.87;76.68
76759;DHT22;65701;45.588;5.186;2023-02-23T09:13:20;12.95;76.83
76759;DHT22;65701;45.588;5.186;2023-02-23T09:15:45;13.02;76.75
76759;DHT22;65701;45.588;5.186;2023-02-23T09:18:12;13.04;76.43
76759;DHT22;65701;45.588;5.186;2023-02-23T09:20:42;13.10;76.53
76759;DHT22;65701;45.588;5.186;2023-02-23T09:23:08;13.11;76.53
76759;DHT22;65701;45.588;5.186;2023-02-23T09:25:38;13.07;76.19
76759;DHT22;65701;45.588;5.186;2023-02-23T09:28:04;13.04;76.13
76759;DHT22;65701;45.588;5.186;2023-02-23T09:30:29;13.00;75.93
76759;DHT22;65701;45.588;5.186;2023-02-23T09:32:55;13.06;76.05
76759;DHT22;65701;45.588;5.186;2023-02-23T09:35:22;13.11;76.11
76759;DHT22;65701;45.588;5.186;2023-02-23T09:37:52;13.17;76.26
76759;DHT22;65701;45.588;5.186;2023-02-23T09:40:25;13.24;76.26
76759;DHT22;65701;45.588;5.186;2023-02-23T09:43:02;13.37;76.33
76759;DHT22;65701;45.588;5.186;2023-02-23T09:45:39;13.47;76.19
76759;DHT22;65701;45.588;5.186;2023-02-23T09:48:16;13.58;76.08
76759;DHT22;65701;45.588;5.186;2023-02-23T09:50:46;13.68;76.09
76759;DHT22;65701;45.588;5.186;2023-02-23T09:55:44;13.89;76.33
76759;DHT22;65701;45.588;5.186;2023-02-23T09:58:20;14.02;76.15
76759;DHT22;65701;45.588;5.186;2023-02-23T10:03:49;14.31;75.71
76759;DHT22;65701;45.588;5.186;2023-02-23T10:06:17;14.41;75.44
76759;DHT22;65701;45.588;5.186;2023-02-23T10:09:11;14.61;75.25
76759;DHT22;65701;45.588;5.186;2023-02-23T10:12:10;14.76;75.05
76759;DHT22;65701;45.588;5.186;2023-02-23T10:17:24;14.93;74.52
76759;DHT22;65701;45.588;5.186;2023-02-23T10:20:17;15.13;74.26
76759;DHT22;65701;45.588;5.186;2023-02-23T10:22:45;15.22;73.66
76759;DHT22;65701;45.588;5.186;2023-02-23T10:25:16;15.31;73.49
76759;DHT22;65701;45.588;5.186;2023-02-23T10:27:46;15.40;73.21
76759;DHT22;65701;45.588;5.186;2023-02-23T10:30:22;15.42;72.57
76759;DHT22;65701;45.588;5.186;2023-02-23T10:32:53;15.37;71.91
76759;DHT22;65701;45.588;5.186;2023-02-23T10:35:22;15.22;71.16
76759;DHT22;65701;45.588;5.186;2023-02-23T10:37:51;15.08;71.03
76759;DHT22;65701;45.588;5.186;2023-02-23T10:40:27;15.00;71.43
76759;DHT22;65701;45.588;5.186;2023-02-23T10:42:55;14.93;71.72
76759;DHT22;65701;45.588;5.186;2023-02-23T10:45:24;14.93;71.52
76759;DHT22;65701;45.588;5.186;2023-02-23T10:48:04;14.85;71.74
76759;DHT22;65701;45.588;5.186;2023-02-23T10:50:32;14.78;71.79
76759;DHT22;65701;45.588;5.186;2023-02-23T10:53:10;14.76;72.10
76759;DHT22;65701;45.588;5.186;2023-02-23T10:55:42;14.83;72.36
76759;DHT22;65701;45.588;5.186;2023-02-23T10:58:14;14.87;72.46
76759;DHT22;65701;45.588;5.186;2023-02-23T11:00:51;14.99;72.66
76759;DHT22;65701;45.588;5.186;2023-02-23T11:03:25;15.02;72.59
76759;DHT22;65701;45.588;5.186;2023-02-23T11:05:51;15.06;72.68
76759;DHT22;65701;45.588;5.186;2023-02-23T11:08:25;15.13;72.73
76759;DHT22;65701;45.588;5.186;2023-02-23T11:13:32;15.16;72.34
76759;DHT22;65701;45.588;5.186;2023-02-23T11:16:05;15.13;71.87
76759;DHT22;65701;45.588;5.186;2023-02-23T11:18:33;15.19;72.08
76759;DHT22;65701;45.588;5.186;2023-02-23T11:20:59;15.24;72.15
76759;DHT22;65701;45.588;5.186;2023-02-23T11:23:30;15.28;72.12
76759;DHT22;65701;45.588;5.186;2023-02-23T11:26:13;15.40;71.53
76759;DHT22;65701;45.588;5.186;2023-02-23T11:28:50;15.47;71.73
76759;DHT22;65701;45.588;5.186;2023-02-23T11:31:22;15.51;71.70
76759;DHT22;65701;45.588;5.186;2023-02-23T11:33:53;15.51;71.56
76759;DHT22;65701;45.588;5.186;2023-02-23T11:36:32;15.48;71.08
76759;DHT22;65701;45.588;5.186;2023-02-23T11:41:29;15.47;71.24
76759;DHT22;65701;45.588;5.186;2023-02-23T11:43:58;15.52;71.43
76759;DHT22;65701;45.588;5.186;2023-02-23T11:46:25;15.52;71.54
76759;DHT22;65701;45.588;5.186;2023-02-23T11:49:07;15.50;71.35
76759;DHT22;65701;45.588;5.186;2023-02-23T11:51:34;15.54;71.40
76759;DHT22;65701;45.588;5.186;2023-02-23T11:54:01;15.52;71.59
76759;DHT22;65701;45.588;5.186;2023-02-23T11:56:29;15.57;71.60
76759;DHT22;65701;45.588;5.186;2023-02-23T11:59:00;15.50;70.60
76759;DHT22;65701;45.588;5.186;2023-02-23T12:01:41;15.52;70.73
76759;DHT22;65701;45.588;5.186;2023-02-23T12:04:28;15.52;70.43
76759;DHT22;65701;45.588;5.186;2023-02-23T12:07:35;15.48;70.23
76759;DHT22;65701;45.588;5.186;2023-02-23T12:10:10;15.47;69.96
76759;DHT22;65701;45.588;5.186;2023-02-23T12:15:43;15.52;70.95
76759;DHT22;65701;45.588;5.186;2023-02-23T12:20:45;15.45;70.24
76759;DHT22;65701;45.588;5.186;2023-02-23T12:23:17;15.52;70.01
76759;DHT22;65701;45.588;5.186;2023-02-23T12:25:53;15.52;70.12
76759;DHT22;65701;45.588;5.186;2023-02-23T12:28:37;15.59;70.38
76759;DHT22;65701;45.588;5.186;2023-02-23T12:31:22;15.66;70.84
76759;DHT22;65701;45.588;5.186;2023-02-23T12:33:56;15.78;70.92
76759;DHT22;65701;45.588;5.186;2023-02-23T12:42:00;15.75;70.16
76759;DHT22;65701;45.588;5.186;2023-02-23T12:44:58;15.65;69.77
76759;DHT22;65701;45.588;5.186;2023-02-23T12:47:51;15.63;69.69
76759;DHT22;65701;45.588;5.186;2023-02-23T12:50:33;15.62;69.93
76759;DHT22;65701;45.588;5.186;2023-02-23T13:01:15;15.58;70.03
76759;DHT22;65701;45.588;5.186;2023-02-23T13:14:56;16.16;69.42
76759;DHT22;65701;45.588;5.186;2023-02-23T13:19:55;16.34;68.92
76759;DHT22;65701;45.588;5.186;2023-02-23T13:25:03;16.60;68.58
76759;DHT22;65701;45.588;5.186;2023-02-23T13:27:41;16.65;68.07
76759;DHT22;65701;45.588;5.186;2023-02-23T13:30:10;16.71;67.44
76759;DHT22;65701;45.588;5.186;2023-02-23T13:32:37;16.71;67.03
76759;DHT22;65701;45.588;5.186;2023-02-23T13:35:13;16.73;67.07
76759;DHT22;65701;45.588;5.186;2023-02-23T13:37:57;16.65;67.00
76759;DHT22;65701;45.588;5.186;2023-02-23T13:51:07;16.38;67.17
76759;DHT22;65701;45.588;5.186;2023-02-23T13:54:00;16.33;67.08
76759;DHT22;65701;45.588;5.186;2023-02-23T13:56:28;16.28;67.25
76759;DHT22;65701;45.588;5.186;2023-02-23T13:59:01;16.23;67.41
76759;DHT22;65701;45.588;5.186;2023-02-23T14:01:43;16.24;67.50
76759;DHT22;65701;45.588;5.186;2023-02-23T14:07:16;16.16;67.50
76759;DHT22;65701;45.588;5.186;2023-02-23T14:12:40;16.07;67.16
76759;DHT22;65701;45.588;5.186;2023-02-23T14:24:00;15.99;67.38
76759;DHT22;65701;45.588;5.186;2023-02-23T14:31:34;15.99;67.42
76759;DHT22;65701;45.588;5.186;2023-02-23T14:34:06;15.97;67.37
76759;DHT22;65701;45.588;5.186;2023-02-23T14:36:35;15.99;67.46
76759;DHT22;65701;45.588;5.186;2023-02-23T14:39:06;15.99;67.49
76759;DHT22;65701;45.588;5.186;2023-02-23T14:44:31;15.97;67.52
76759;DHT22;65701;45.588;5.186;2023-02-23T14:47:06;15.90;67.43
76759;DHT22;65701;45.588;5.186;2023-02-23T14:49:36;15.96;67.55
76759;DHT22;65701;45.588;5.186;2023-02-23T14:52:13;15.89;67.39
76759;DHT22;65701;45.588;5.186;2023-02-23T14:54:44;15.92;67.40
76759;DHT22;65701;45.588;5.186;2023-02-23T14:57:21;15.90;67.55
76759;DHT22;65701;45.588;5.186;2023-02-23T15:00:07;15.89;67.60
76759;DHT22;65701;45.588;5.186;2023-02-23T15:02:35;15.86;67.65
76759;DHT22;65701;45.588;5.186;2023-02-23T15:05:16;15.82;67.73
76759;DHT22;65701;45.588;5.186;2023-02-23T15:07:41;15.79;67.42
76759;DHT22;65701;45.588;5.186;2023-02-23T15:10:25;15.79;67.54
76759;DHT22;65701;45.588;5.186;2023-02-23T15:12:52;15.72;67.17
76759;DHT22;65701;45.588;5.186;2023-02-23T15:15:21;15.66;67.01
76759;DHT22;65701;45.588;5.186;2023-02-23T15:17:49;15.62;66.79
76759;DHT22;65701;45.588;5.186;2023-02-23T15:20:19;15.61;66.94
76759;DHT22;65701;45.588;5.186;2023-02-23T15:22:52;15.58;67.00
76759;DHT22;65701;45.588;5.186;2023-02-23T15:25:22;15.59;67.07
76759;DHT22;65701;45.588;5.186;2023-02-23T15:27:52;15.59;67.20
76759;DHT22;65701;45.588;5.186;2023-02-23T15:32:46;15.57;67.49
76759;DHT22;65701;45.588;5.186;2023-02-23T15:35:13;15.55;67.37
76759;DHT22;65701;45.588;5.186;2023-02-23T15:37:46;15.52;67.40
76759;DHT22;65701;45.588;5.186;2023-02-23T15:40:15;15.54;67.65
76759;DHT22;65701;45.588;5.186;2023-02-23T15:42:49;15.51;68.03
76759;DHT22;65701;45.588;5.186;2023-02-23T15:47:59;15.44;68.54
76759;DHT22;65701;45.588;5.186;2023-02-23T15:50:30;15.37;68.62
76759;DHT22;65701;45.588;5.186;2023-02-23T15:53:02;15.37;68.74
76759;DHT22;65701;45.588;5.186;2023-02-23T15:55:35;15.33;68.88
76759;DHT22;65701;45.588;5.186;2023-02-23T15:58:12;15.30;69.04
76759;DHT22;65701;45.588;5.186;2023-02-23T16:00:42;15.24;69.21
76759;DHT22;65701;45.588;5.186;2023-02-23T16:03:22;15.17;69.32
76759;DHT22;65701;45.588;5.186;2023-02-23T16:06:05;15.17;69.48
76759;DHT22;65701;45.588;5.186;2023-02-23T16:08:31;15.14;69.61
76759;DHT22;65701;45.588;5.186;2023-02-23T16:11:09;15.11;69.83
76759;DHT22;65701;45.588;5.186;2023-02-23T16:13:36;15.08;69.88
76759;DHT22;65701;45.588;5.186;2023-02-23T16:16:04;15.06;69.97
76759;DHT22;65701;45.588;5.186;2023-02-23T16:18:38;15.06;70.02
76759;DHT22;65701;45.588;5.186;2023-02-23T16:21:06;15.00;70.06
76759;DHT22;65701;45.588;5.186;2023-02-23T16:23:41;15.03;70.08
76759;DHT22;65701;45.588;5.186;2023-02-23T16:26:18;14.92;70.05
76759;DHT22;65701;45.588;5.186;2023-02-23T16:28:53;14.82;69.96
76759;DHT22;65701;45.588;5.186;2023-02-23T16:31:38;14.75;69.99
76759;DHT22;65701;45.588;5.186;2023-02-23T16:36:42;14.65;70.17
76759;DHT22;65701;45.588;5.186;2023-02-23T16:39:12;14.62;70.23
76759;DHT22;65701;45.588;5.186;2023-02-23T16:41:42;14.58;70.37
76759;DHT22;65701;45.588;5.186;2023-02-23T16:44:15;14.52;70.41
76759;DHT22;65701;45.588;5.186;2023-02-23T16:47:08;14.49;70.48
76759;DHT22;65701;45.588;5.186;2023-02-23T16:49:35;14.42;70.57
76759;DHT22;65701;45.588;5.186;2023-02-23T16:52:05;14.34;70.71
76759;DHT22;65701;45.588;5.186;2023-02-23T16:54:31;14.34;70.71
76759;DHT22;65701;45.588;5.186;2023-02-23T16:56:56;14.30;70.75
76759;DHT22;65701;45.588;5.186;2023-02-23T16:59:22;14.25;70.83
76759;DHT22;65701;45.588;5.186;2023-02-23T17:01:48;14.18;70.93
76759;DHT22;65701;45.588;5.186;2023-02-23T17:04:17;14.18;70.97
76759;DHT22;65701;45.588;5.186;2023-02-23T17:06:44;14.13;71.02
76759;DHT22;65701;45.588;5.186;2023-02-23T17:09:17;14.06;71.09
76759;DHT22;65701;45.588;5.186;2023-02-23T17:11:42;14.00;71.24
76759;DHT22;65701;45.588;5.186;2023-02-23T17:14:23;13.96;71.25
76759;DHT22;65701;45.588;5.186;2023-02-23T17:16:49;13.91;71.39
76759;DHT22;65701;45.588;5.186;2023-02-23T17:19:16;13.89;71.54
76759;DHT22;65701;45.588;5.186;2023-02-23T17:21:43;13.85;71.67
76759;DHT22;65701;45.588;5.186;2023-02-23T17:24:08;13.79;71.81
76759;DHT22;65701;45.588;5.186;2023-02-23T17:26:34;13.72;71.92
76759;DHT22;65701;45.588;5.186;2023-02-23T17:29:00;13.69;71.88
76759;DHT22;65701;45.588;5.186;2023-02-23T17:31:25;13.68;71.93
76759;DHT22;65701;45.588;5.186;2023-02-23T17:33:51;13.61;71.99
76759;DHT22;65701;45.588;5.186;2023-02-23T17:36:17;13.59;72.11
76759;DHT22;65701;45.588;5.186;2023-02-23T17:38:43;13.58;72.08
76759;DHT22;65701;45.588;5.186;2023-02-23T17:41:13;13.61;71.98
76759;DHT22;65701;45.588;5.186;2023-02-23T17:43:39;13.54;72.03
76759;DHT22;65701;45.588;5.186;2023-02-23T17:46:06;13.51;72.07
76759;DHT22;65701;45.588;5.186;2023-02-23T17:48:32;13.54;72.00
76759;DHT22;65701;45.588;5.186;2023-02-23T17:51:02;13.54;71.98
76759;DHT22;65701;45.588;5.186;2023-02-23T17:53:29;13.54;71.96
76759;DHT22;65701;45.588;5.186;2023-02-23T17:55:55;13.50;71.95
76759;DHT22;65701;45.588;5.186;2023-02-23T17:58:21;13.54;71.95
76759;DHT22;65701;45.588;5.186;2023-02-23T18:00:55;13.52;71.90
76759;DHT22;65701;45.588;5.186;2023-02-23T18:03:23;13.54;71.88
76759;DHT22;65701;45.588;5.186;2023-02-23T18:05:50;13.55;71.85
76759;DHT22;65701;45.588;5.186;2023-02-23T18:08:17;13.52;71.87
76759;DHT22;65701;45.588;5.186;2023-02-23T18:10:55;13.52;71.87
76759;DHT22;65701;45.588;5.186;2023-02-23T18:13:22;13.51;71.91
76759;DHT22;65701;45.588;5.186;2023-02-23T18:15:53;13.51;71.97
76759;DHT22;65701;45.588;5.186;2023-02-23T18:18:21;13.48;71.99
76759;DHT22;65701;45.588;5.186;2023-02-23T18:20:58;13.48;72.01
76759;DHT22;65701;45.588;5.186;2023-02-23T18:23:27;13.41;72.30
76759;DHT22;65701;45.588;5.186;2023-02-23T18:26:03;13.40;72.43
76759;DHT22;65701;45.588;5.186;2023-02-23T18:28:30;13.37;72.35
76759;DHT22;65701;45.588;5.186;2023-02-23T18:30:56;13.34;72.51
76759;DHT22;65701;45.588;5.186;2023-02-23T18:33:22;13.34;72.61
76759;DHT22;65701;45.588;5.186;2023-02-23T18:35:48;13.32;72.57
76759;DHT22;65701;45.588;5.186;2023-02-23T18:38:13;13.30;72.55
76759;DHT22;65701;45.588;5.186;2023-02-23T18:40:40;13.31;72.50
76759;DHT22;65701;45.588;5.186;2023-02-23T18:43:06;13.25;72.55
76759;DHT22;65701;45.588;5.186;2023-02-23T18:45:32;13.25;72.71
76759;DHT22;65701;45.588;5.186;2023-02-23T18:47:57;13.24;72.70
76759;DHT22;65701;45.588;5.186;2023-02-23T18:50:24;13.25;72.67
76759;DHT22;65701;45.588;5.186;2023-02-23T18:52:52;13.23;72.65
76759;DHT22;65701;45.588;5.186;2023-02-23T18:55:19;13.20;72.72
76759;DHT22;65701;45.588;5.186;2023-02-23T18:57:47;13.21;72.74
76759;DHT22;65701;45.588;5.186;2023-02-23T19:00:14;13.18;72.71
76759;DHT22;65701;45.588;5.186;2023-02-23T19:02:41;13.17;72.76
76759;DHT22;65701;45.588;5.186;2023-02-23T19:05:09;13.14;72.74
76759;DHT22;65701;45.588;5.186;2023-02-23T19:07:37;13.13;72.75
76759;DHT22;65701;45.588;5.186;2023-02-23T19:10:04;13.13;72.72
76759;DHT22;65701;45.588;5.186;2023-02-23T19:12:31;13.11;72.75
76759;DHT22;65701;45.588;5.186;2023-02-23T19:14:57;13.11;72.77
76759;DHT22;65701;45.588;5.186;2023-02-23T19:17:24;13.10;72.70
76759;DHT22;65701;45.588;5.186;2023-02-23T19:19:50;13.08;72.73
76759;DHT22;65701;45.588;5.186;2023-02-23T19:22:20;13.07;72.81
76759;DHT22;65701;45.588;5.186;2023-02-23T19:24:46;13.07;72.77
76759;DHT22;65701;45.588;5.186;2023-02-23T19:27:11;13.03;72.86
76759;DHT22;65701;45.588;5.186;2023-02-23T19:29:37;12.97;73.03
76759;DHT22;65701;45.588;5.186;2023-02-23T19:32:03;12.97;73.12
76759;DHT22;65701;45.588;5.186;2023-02-23T19:34:29;12.96;73.31
76759;DHT22;65701;45.588;5.186;2023-02-23T19:36:54;12.92;73.33
76759;DHT22;65701;45.588;5.186;2023-02-23T19:39:20;12.93;73.27
76759;DHT22;65701;45.588;5.186;2023-02-23T19:41:45;12.87;73.33
76759;DHT22;65701;45.588;5.186;2023-02-23T19:44:11;12.87;73.43
76759;DHT22;65701;45.588;5.186;2023-02-23T19:46:37;12.82;73.62
76759;DHT22;65701;45.588;5.186;2023-02-23T19:49:04;12.77;73.72
76759;DHT22;65701;45.588;5.186;2023-02-23T19:51:29;12.79;73.74
76759;DHT22;65701;45.588;5.186;2023-02-23T19:53:56;12.76;73.74
76759;DHT22;65701;45.588;5.186;2023-02-23T19:56:23;12.77;73.72
76759;DHT22;65701;45.588;5.186;2023-02-23T19:58:49;12.75;73.73
76759;DHT22;65701;45.588;5.186;2023-02-23T20:01:17;12.76;73.69
76759;DHT22;65701;45.588;5.186;2023-02-23T20:03:44;12.77;73.82
76759;DHT22;65701;45.588;5.186;2023-02-23T20:06:13;12.75;73.78
76759;DHT22;65701;45.588;5.186;2023-02-23T20:08:40;12.75;73.66
76759;DHT22;65701;45.588;5.186;2023-02-23T20:11:07;12.75;73.63
76759;DHT22;65701;45.588;5.186;2023-02-23T20:13:33;12.77;73.63
76759;DHT22;65701;45.588;5.186;2023-02-23T20:16:07;12.77;73.56
76759;DHT22;65701;45.588;5.186;2023-02-23T20:18:33;12.79;73.52
76759;DHT22;65701;45.588;5.186;2023-02-23T20:21:08;12.79;73.55
76759;DHT22;65701;45.588;5.186;2023-02-23T20:23:35;12.75;73.77
76759;DHT22;65701;45.588;5.186;2023-02-23T20:26:09;12.70;74.25
76759;DHT22;65701;45.588;5.186;2023-02-23T20:28:35;12.63;74.49
76759;DHT22;65701;45.588;5.186;2023-02-23T20:31:01;12.66;74.33
76759;DHT22;65701;45.588;5.186;2023-02-23T20:33:28;12.63;74.24
76759;DHT22;65701;45.588;5.186;2023-02-23T20:35:54;12.62;74.38
76759;DHT22;65701;45.588;5.186;2023-02-23T20:38:19;12.60;74.28
76759;DHT22;65701;45.588;5.186;2023-02-23T20:40:45;12.58;74.63
76759;DHT22;65701;45.588;5.186;2023-02-23T20:43:11;12.53;74.74
76759;DHT22;65701;45.588;5.186;2023-02-23T20:45:36;12.51;74.84
76759;DHT22;65701;45.588;5.186;2023-02-23T20:48:04;12.52;74.88
76759;DHT22;65701;45.588;5.186;2023-02-23T20:50:34;12.48;75.09
76759;DHT22;65701;45.588;5.186;2023-02-23T20:53:00;12.44;75.24
76759;DHT22;65701;45.588;5.186;2023-02-23T20:55:27;12.46;75.10
76759;DHT22;65701;45.588;5.186;2023-02-23T20:57:54;12.46;74.85
76759;DHT22;65701;45.588;5.186;2023-02-23T21:00:19;12.45;74.65
76759;DHT22;65701;45.588;5.186;2023-02-23T21:02:57;12.41;74.92
76759;DHT22;65701;45.588;5.186;2023-02-23T21:05:25;12.41;74.92
76759;DHT22;65701;45.588;5.186;2023-02-23T21:07:51;12.38;74.96
76759;DHT22;65701;45.588;5.186;2023-02-23T21:10:17;12.32;75.03
76759;DHT22;65701;45.588;5.186;2023-02-23T21:12:46;12.34;75.06
76759;DHT22;65701;45.588;5.186;2023-02-23T21:15:11;12.31;74.86
76759;DHT22;65701;45.588;5.186;2023-02-23T21:17:40;12.31;75.03
76759;DHT22;65701;45.588;5.186;2023-02-23T21:20:12;12.30;75.03
76759;DHT22;65701;45.588;5.186;2023-02-23T21:22:38;12.27;75.05
76759;DHT22;65701;45.588;5.186;2023-02-23T21:25:05;12.28;75.09
76759;DHT22;65701;45.588;5.186;2023-02-23T21:27:31;12.24;74.93
76759;DHT22;65701;45.588;5.186;2023-02-23T21:29:57;12.27;75.02